sensor_id;sensor_type;location;lat;lon;timestamp;temperature;humidity
16578;DHT22;8401;52.528;13.340;2022-12-07T00:00:54;3.20;99.90
16578;DHT22;8401;52.528;13.340;2022-12-07T00:03:20;3.30;99.90
16578;DHT22;8401;52.528;13.340;2022-12-07T00:05:45;3.20;99.90
16578;DHT22;8401;52.528;13.340;2022-12-07T00:08:11;3.20;99.90
16578;DHT22;8401;52.528;13.340;2022-12-07T00:10:37;3.20;99.90
16578;DHT22;8401;52.528;13.340;2022-12-07T00:13:02;3.30;99.90
16578;DHT22;8401;52.528;13.340;2022-12-07T00:15:28;3.20;99.90
16578;DHT22;8401;52.528;13.340;2022-12-07T00:17:54;3.10;99.90
16578;DHT22;8401;52.528;13.340;2022-12-07T00:20:19;3.20;99.90
16578;DHT22;8401;52.528;13.340;2022-12-07T00:22:45;3.20;99.90
16578;DHT22;8401;52.528;13.340;2022-12-07T00:25:11;3.20;99.90
16578;DHT22;8401;52.528;13.340;2022-12-07T00:27:36;3.10;99.90
16578;DHT22;8401;52.528;13.340;2022-12-07T00:30:02;3.10;99.90
16578;DHT22;8401;52.528;13.340;2022-12-07T00:32:28;3.10;99.90
16578;DHT22;8401;52.528;13.340;2022-12-07T00:34:54;3.10;99.90
16578;DHT22;8401;52.528;13.340;2022-12-07T00:37:19;3.10;99.90
16578;DHT22;8401;52.528;13.340;2022-12-07T00:39:46;3.10;99.90
16578;DHT22;8401;52.528;13.340;2022-12-07T00:42:11;3.10;99.90
16578;DHT22;8401;52.528;13.340;2022-12-07T00:44:37;3.00;99.90
16578;DHT22;8401;52.528;13.340;2022-12-07T00:47:03;3.00;99.90
16578;DHT22;8401;52.528;13.340;2022-12-07T00:49:28;2.90;99.90
16578;DHT22;8401;52.528;13.340;2022-12-07T00:51:54;2.90;99.90
16578;DHT22;8401;52.528;13.340;2022-12-07T00:54:20;2.90;99.90
16578;DHT22;8401;52.528;13.340;2022-12-07T00:56:45;2.80;99.90
16578;DHT22;8401;52.528;13.340;2022-12-07T00:59:14;2.80;99.90
16578;DHT22;8401;52.528;13.340;2022-12-07T01:01:40;2.80;99.90
16578;DHT22;8401;52.528;13.340;2022-12-07T01:04:06;2.80;99.90
16578;DHT22;8401;52.528;13.340;2022-12-07T01:06:32;2.80;99.90
16578;DHT22;8401;52.528;13.340;2022-12-07T01:08:58;2.80;99.90
16578;DHT22;8401;52.528;13.340;2022-12-07T01:11:26;2.70;99.90
16578;DHT22;8401;52.528;13.340;2022-12-07T01:13:54;2.70;99.90
16578;DHT22;8401;52.528;13.340;2022-12-07T01:16:21;2.80;99.90
16578;DHT22;8401;52.528;13.340;2022-12-07T01:18:49;2.70;99.90
16578;DHT22;8401;52.528;13.340;2022-12-07T01:21:17;2.80;99.90
16578;DHT22;8401;52.528;13.340;2022-12-07T01:23:44;2.80;99.90
16578;DHT22;8401;52.528;13.340;2022-12-07T01:26:14;2.80;99.90
16578;DHT22;8401;52.528;13.340;2022-12-07T01:28:40;2.80;99.90
16578;DHT22;8401;52.528;13.340;2022-12-07T01:31:08;2.80;99.90
16578;DHT22;8401;52.528;13.340;2022-12-07T01:33:39;2.80;99.90
16578;DHT22;8401;52.528;13.340;2022-12-07T01:36:19;2.80;99.90
16578;DHT22;8401;52.528;13.340;2022-12-07T01:38:46;2.80;99.90
16578;DHT22;8401;52.528;13.340;2022-12-07T01:41:12;2.70;99.90
16578;DHT22;8401;52.528;13.340;2022-12-07T01:46:36;2.70;99.90
16578;DHT22;8401;52.528;13.340;2022-12-07T01:49:08;2.70;99.90
16578;DHT22;8401;52.528;13.340;2022-12-07T01:51:38;2.70;99.90
16578;DHT22;8401;52.528;13.340;2022-12-07T01:54:06;2.70;99.90
16578;DHT22;8401;52.528;13.340;2022-12-07T01:56:32;2.70;99.90
16578;DHT22;8401;52.528;13.340;2022-12-07T01:58:58;2.70;99.90
16578;DHT22;8401;52.528;13.340;2022-12-07T02:01:25;2.70;99.90
16578;DHT22;8401;52.528;13.340;2022-12-07T02:03:51;2.80;99.90
16578;DHT22;8401;52.528;13.340;2022-12-07T02:06:20;2.80;99.90
16578;DHT22;8401;52.528;13.340;2022-12-07T02:08:49;2.80;99.90
16578;DHT22;8401;52.528;13.340;2022-12-07T02:11:15;2.80;99.90
16578;DHT22;8401;52.528;13.340;2022-12-07T02:13:42;2.80;99.90
16578;DHT22;8401;52.528;13.340;2022-12-07T02:16:30;2.80;99.90
16578;DHT22;8401;52.528;13.340;2022-12-07T02:27:40;2.80;99.90
16578;DHT22;8401;52.528;13.340;2022-12-07T02:30:11;2.80;99.90
16578;DHT22;8401;52.528;13.340;2022-12-07T02:32:42;2.80;99.90
16578;DHT22;8401;52.528;13.340;2022-12-07T02:37:48;2.80;99.90
16578;DHT22;8401;52.528;13.340;2022-12-07T02:40:31;2.80;99.90
16578;DHT22;8401;52.528;13.340;2022-12-07T02:43:57;2.70;99.90
16578;DHT22;8401;52.528;13.340;2022-12-07T02:46:09;2.70;99.90
16578;DHT22;8401;52.528;13.340;2022-12-07T02:48:37;2.70;99.90
16578;DHT22;8401;52.528;13.340;2022-12-07T02:51:04;2.60;99.90
16578;DHT22;8401;52.528;13.340;2022-12-07T02:53:30;2.70;99.90
16578;DHT22;8401;52.528;13.340;2022-12-07T02:55:56;2.70;99.90
16578;DHT22;8401;52.528;13.340;2022-12-07T02:58:41;2.70;99.90
16578;DHT22;8401;52.528;13.340;2022-12-07T03:03:39;2.60;99.90
16578;DHT22;8401;52.528;13.340;2022-12-07T03:06:19;2.70;99.90
16578;DHT22;8401;52.528;13.340;2022-12-07T03:11:48;2.70;99.90
16578;DHT22;8401;52.528;13.340;2022-12-07T03:14:23;2.80;99.90
16578;DHT22;8401;52.528;13.340;2022-12-07T03:17:01;2.80;99.90
16578;DHT22;8401;52.528;13.340;2022-12-07T03:19:31;2.80;99.90
16578;DHT22;8401;52.528;13.340;2022-12-07T03:22:02;2.80;99.90
16578;DHT22;8401;52.528;13.340;2022-12-07T03:24:36;2.80;99.90
16578;DHT22;8401;52.528;13.340;2022-12-07T03:27:13;2.80;99.90
16578;DHT22;8401;52.528;13.340;2022-12-07T03:29:47;2.80;99.90
16578;DHT22;8401;52.528;13.340;2022-12-07T03:32:19;2.80;99.90
16578;DHT22;8401;52.528;13.340;2022-12-07T03:35:02;2.90;99.90
16578;DHT22;8401;52.528;13.340;2022-12-07T03:37:40;2.90;99.90
16578;DHT22;8401;52.528;13.340;2022-12-07T03:42:37;3.20;99.90
16578;DHT22;8401;52.528;13.340;2022-12-07T03:45:04;3.20;99.90
16578;DHT22;8401;52.528;13.340;2022-12-07T03:47:57;3.20;99.90
16578;DHT22;8401;52.528;13.340;2022-12-07T03:53:15;3.10;99.90
16578;DHT22;8401;52.528;13.340;2022-12-07T03:55:45;3.20;99.90
16578;DHT22;8401;52.528;13.340;2022-12-07T03:58:16;3.20;99.90
16578;DHT22;8401;52.528;13.340;2022-12-07T04:00:43;3.20;99.90
16578;DHT22;8401;52.528;13.340;2022-12-07T04:03:10;3.00;99.90
16578;DHT22;8401;52.528;13.340;2022-12-07T04:05:36;3.20;99.90
16578;DHT22;8401;52.528;13.340;2022-12-07T04:08:02;3.10;99.90
16578;DHT22;8401;52.528;13.340;2022-12-07T04:10:28;3.10;99.90
16578;DHT22;8401;52.528;13.340;2022-12-07T04:12:55;2.90;99.90
16578;DHT22;8401;52.528;13.340;2022-12-07T04:15:21;2.90;99.90
16578;DHT22;8401;52.528;13.340;2022-12-07T04:17:47;2.90;99.90
16578;DHT22;8401;52.528;13.340;2022-12-07T04:20:13;2.90;99.90
16578;DHT22;8401;52.528;13.340;2022-12-07T04:22:39;2.90;99.90
16578;DHT22;8401;52.528;13.340;2022-12-07T04:25:05;2.90;99.90
16578;DHT22;8401;52.528;13.340;2022-12-07T04:27:31;2.90;99.90
16578;DHT22;8401;52.528;13.340;2022-12-07T04:29:56;2.90;99.90
16578;DHT22;8401;52.528;13.340;2022-12-07T04:32:23;2.90;99.90
16578;DHT22;8401;52.528;13.340;2022-12-07T04:34:49;2.90;99.90
16578;DHT22;8401;52.528;13.340;2022-12-07T04:37:15;2.70;99.90
16578;DHT22;8401;52.528;13.340;2022-12-07T04:39:40;2.70;99.90
16578;DHT22;8401;52.528;13.340;2022-12-07T04:42:06;2.80;99.90
16578;DHT22;8401;52.528;13.340;2022-12-07T04:44:32;2.90;99.90
16578;DHT22;8401;52.528;13.340;2022-12-07T04:46:57;2.90;99.90
16578;DHT22;8401;52.528;13.340;2022-12-07T04:49:24;2.80;99.90
16578;DHT22;8401;52.528;13.340;2022-12-07T04:51:50;2.70;99.90
16578;DHT22;8401;52.528;13.340;2022-12-07T04:54:16;2.70;99.90
16578;DHT22;8401;52.528;13.340;2022-12-07T04:56:42;2.70;99.90
16578;DHT22;8401;52.528;13.340;2022-12-07T04:59:08;2.80;99.90
16578;DHT22;8401;52.528;13.340;2022-12-07T05:01:34;2.80;99.90
16578;DHT22;8401;52.528;13.340;2022-12-07T05:04:00;2.80;99.90
16578;DHT22;8401;52.528;13.340;2022-12-07T05:06:26;2.70;99.90
16578;DHT22;8401;52.528;13.340;2022-12-07T05:08:52;2.80;99.90
16578;DHT22;8401;52.528;13.340;2022-12-07T05:11:18;2.80;99.90
16578;DHT22;8401;52.528;13.340;2022-12-07T05:14:05;2.90;99.90
16578;DHT22;8401;52.528;13.340;2022-12-07T05:16:31;2.90;99.90
16578;DHT22;8401;52.528;13.340;2022-12-07T05:18:56;2.90;99.90
16578;DHT22;8401;52.528;13.340;2022-12-07T05:21:22;3.00;99.90
16578;DHT22;8401;52.528;13.340;2022-12-07T05:23:48;3.10;99.90
16578;DHT22;8401;52.528;13.340;2022-12-07T05:26:14;3.10;99.90
16578;DHT22;8401;52.528;13.340;2022-12-07T05:28:39;3.10;99.90
16578;DHT22;8401;52.528;13.340;2022-12-07T05:31:05;3.10;99.90
16578;DHT22;8401;52.528;13.340;2022-12-07T05:33:30;3.10;99.90
16578;DHT22;8401;52.528;13.340;2022-12-07T05:35:56;3.20;99.90
16578;DHT22;8401;52.528;13.340;2022-12-07T05:38:22;3.20;99.90
16578;DHT22;8401;52.528;13.340;2022-12-07T05:40:47;3.20;99.90
16578;DHT22;8401;52.528;13.340;2022-12-07T05:43:13;3.20;99.90
16578;DHT22;8401;52.528;13.340;2022-12-07T05:45:39;3.20;99.90
16578;DHT22;8401;52.528;13.340;2022-12-07T05:48:04;3.30;99.90
16578;DHT22;8401;52.528;13.340;2022-12-07T05:50:30;3.30;99.90
16578;DHT22;8401;52.528;13.340;2022-12-07T05:52:56;3.30;99.90
16578;DHT22;8401;52.528;13.340;2022-12-07T05:55:21;3.30;99.90
16578;DHT22;8401;52.528;13.340;2022-12-07T05:57:47;3.30;99.90
16578;DHT22;8401;52.528;13.340;2022-12-07T06:00:32;3.30;99.90
16578;DHT22;8401;52.528;13.340;2022-12-07T06:02:58;3.40;99.90
16578;DHT22;8401;52.528;13.340;2022-12-07T06:05:23;3.40;99.90
16578;DHT22;8401;52.528;13.340;2022-12-07T06:07:49;3.40;99.90
16578;DHT22;8401;52.528;13.340;2022-12-07T06:10:15;3.40;99.90
16578;DHT22;8401;52.528;13.340;2022-12-07T06:12:41;3.40;99.90
16578;DHT22;8401;52.528;13.340;2022-12-07T06:15:09;3.60;99.90
16578;DHT22;8401;52.528;13.340;2022-12-07T06:17:36;3.50;99.90
16578;DHT22;8401;52.528;13.340;2022-12-07T06:20:02;3.50;99.90
16578;DHT22;8401;52.528;13.340;2022-12-07T06:22:28;3.50;99.90
16578;DHT22;8401;52.528;13.340;2022-12-07T06:24:54;3.50;99.90
16578;DHT22;8401;52.528;13.340;2022-12-07T06:27:19;3.50;99.90
16578;DHT22;8401;52.528;13.340;2022-12-07T06:29:45;3.50;99.90
16578;DHT22;8401;52.528;13.340;2022-12-07T06:32:11;3.40;99.90
16578;DHT22;8401;52.528;13.340;2022-12-07T06:34:37;3.40;99.90
16578;DHT22;8401;52.528;13.340;2022-12-07T06:37:03;3.40;99.90
16578;DHT22;8401;52.528;13.340;2022-12-07T06:39:29;3.40;99.90
16578;DHT22;8401;52.528;13.340;2022-12-07T06:41:54;3.40;99.90
16578;DHT22;8401;52.528;13.340;2022-12-07T06:44:21;3.40;99.90
16578;DHT22;8401;52.528;13.340;2022-12-07T06:46:47;3.40;99.90
16578;DHT22;8401;52.528;13.340;2022-12-07T06:49:13;3.50;99.90
16578;DHT22;8401;52.528;13.340;2022-12-07T06:51:39;3.50;99.90
16578;DHT22;8401;52.528;13.340;2022-12-07T06:54:11;3.50;99.90
16578;DHT22;8401;52.528;13.340;2022-12-07T06:56:37;3.50;99.90
16578;DHT22;8401;52.528;13.340;2022-12-07T06:59:03;3.60;99.90
16578;DHT22;8401;52.528;13.340;2022-12-07T07:01:30;3.60;99.90
16578;DHT22;8401;52.528;13.340;2022-12-07T07:03:56;3.60;99.90
16578;DHT22;8401;52.528;13.340;2022-12-07T07:06:22;3.60;99.90
16578;DHT22;8401;52.528;13.340;2022-12-07T07:08:47;3.60;99.90
16578;DHT22;8401;52.528;13.340;2022-12-07T07:11:13;3.60;99.90
16578;DHT22;8401;52.528;13.340;2022-12-07T07:13:39;3.60;99.90
16578;DHT22;8401;52.528;13.340;2022-12-07T07:16:05;3.70;99.90
16578;DHT22;8401;52.528;13.340;2022-12-07T07:18:31;3.70;99.90
16578;DHT22;8401;52.528;13.340;2022-12-07T07:20:57;3.70;99.90
16578;DHT22;8401;52.528;13.340;2022-12-07T07:23:22;3.70;99.90
16578;DHT22;8401;52.528;13.340;2022-12-07T07:25:48;3.80;99.90
16578;DHT22;8401;52.528;13.340;2022-12-07T07:28:15;3.80;99.90
16578;DHT22;8401;52.528;13.340;2022-12-07T07:30:41;3.80;99.90
16578;DHT22;8401;52.528;13.340;2022-12-07T07:33:07;3.80;99.90
16578;DHT22;8401;52.528;13.340;2022-12-07T07:35:33;3.70;99.90
16578;DHT22;8401;52.528;13.340;2022-12-07T07:38:00;3.80;99.90
16578;DHT22;8401;52.528;13.340;2022-12-07T07:40:26;3.70;99.90
16578;DHT22;8401;52.528;13.340;2022-12-07T07:42:54;3.80;99.90
16578;DHT22;8401;52.528;13.340;2022-12-07T07:45:22;3.70;99.90
16578;DHT22;8401;52.528;13.340;2022-12-07T07:47:48;3.70;99.90
16578;DHT22;8401;52.528;13.340;2022-12-07T07:50:14;3.70;99.90
16578;DHT22;8401;52.528;13.340;2022-12-07T07:52:40;3.80;99.90
16578;DHT22;8401;52.528;13.340;2022-12-07T07:55:06;3.80;99.90
16578;DHT22;8401;52.528;13.340;2022-12-07T07:57:34;3.80;99.90
16578;DHT22;8401;52.528;13.340;2022-12-07T08:00:00;3.80;99.90
16578;DHT22;8401;52.528;13.340;2022-12-07T08:02:26;3.80;99.90
16578;DHT22;8401;52.528;13.340;2022-12-07T08:04:51;3.80;99.90
16578;DHT22;8401;52.528;13.340;2022-12-07T08:07:17;3.80;99.90
16578;DHT22;8401;52.528;13.340;2022-12-07T08:09:43;3.80;99.90
16578;DHT22;8401;52.528;13.340;2022-12-07T08:12:08;3.90;99.90
16578;DHT22;8401;52.528;13.340;2022-12-07T08:14:34;3.80;99.90
16578;DHT22;8401;52.528;13.340;2022-12-07T08:17:00;4.00;99.90
16578;DHT22;8401;52.528;13.340;2022-12-07T08:19:25;4.20;99.90
16578;DHT22;8401;52.528;13.340;2022-12-07T08:21:51;4.40;99.90
16578;DHT22;8401;52.528;13.340;2022-12-07T08:24:20;4.30;99.90
16578;DHT22;8401;52.528;13.340;2022-12-07T08:26:46;4.30;99.90
16578;DHT22;8401;52.528;13.340;2022-12-07T08:29:11;4.10;99.90
16578;DHT22;8401;52.528;13.340;2022-12-07T08:31:37;4.10;99.90
16578;DHT22;8401;52.528;13.340;2022-12-07T08:34:03;4.10;99.90
16578;DHT22;8401;52.528;13.340;2022-12-07T08:36:29;4.10;99.90
16578;DHT22;8401;52.528;13.340;2022-12-07T08:38:54;4.10;99.90
16578;DHT22;8401;52.528;13.340;2022-12-07T08:41:20;4.10;99.90
16578;DHT22;8401;52.528;13.340;2022-12-07T08:43:45;4.10;99.90
16578;DHT22;8401;52.528;13.340;2022-12-07T08:46:24;4.10;99.90
16578;DHT22;8401;52.528;13.340;2022-12-07T08:48:58;4.10;99.90
16578;DHT22;8401;52.528;13.340;2022-12-07T08:51:26;4.10;99.90
16578;DHT22;8401;52.528;13.340;2022-12-07T08:53:53;4.10;99.90
16578;DHT22;8401;52.528;13.340;2022-12-07T08:56:19;4.10;99.90
16578;DHT22;8401;52.528;13.340;2022-12-07T08:58:48;4.10;94.50
16578;DHT22;8401;52.528;13.340;2022-12-07T09:01:14;4.10;85.00
16578;DHT22;8401;52.528;13.340;2022-12-07T09:03:40;4.10;84.70
16578;DHT22;8401;52.528;13.340;2022-12-07T09:06:06;4.10;72.40
16578;DHT22;8401;52.528;13.340;2022-12-07T09:08:39;4.10;70.00
16578;DHT22;8401;52.528;13.340;2022-12-07T09:11:07;4.10;64.20
16578;DHT22;8401;52.528;13.340;2022-12-07T09:13:32;4.10;68.70
16578;DHT22;8401;52.528;13.340;2022-12-07T09:15:58;4.10;59.90
16578;DHT22;8401;52.528;13.340;2022-12-07T09:18:23;4.20;61.60
16578;DHT22;8401;52.528;13.340;2022-12-07T09:20:50;4.10;47.90
16578;DHT22;8401;52.528;13.340;2022-12-07T09:23:16;4.00;50.30
16578;DHT22;8401;52.528;13.340;2022-12-07T09:25:42;4.00;59.80
16578;DHT22;8401;52.528;13.340;2022-12-07T09:28:08;4.00;58.10
16578;DHT22;8401;52.528;13.340;2022-12-07T09:30:34;4.00;59.50
16578;DHT22;8401;52.528;13.340;2022-12-07T09:33:00;4.00;62.00
16578;DHT22;8401;52.528;13.340;2022-12-07T09:35:26;3.90;64.70
16578;DHT22;8401;52.528;13.340;2022-12-07T09:37:52;4.00;65.90
16578;DHT22;8401;52.528;13.340;2022-12-07T09:40:21;3.90;67.30
16578;DHT22;8401;52.528;13.340;2022-12-07T09:42:51;3.80;74.60
16578;DHT22;8401;52.528;13.340;2022-12-07T09:45:24;3.90;76.30
16578;DHT22;8401;52.528;13.340;2022-12-07T09:47:50;3.90;57.00
16578;DHT22;8401;52.528;13.340;2022-12-07T09:50:20;3.80;49.40
16578;DHT22;8401;52.528;13.340;2022-12-07T09:52:47;3.70;41.70
16578;DHT22;8401;52.528;13.340;2022-12-07T09:55:16;3.70;41.20
16578;DHT22;8401;52.528;13.340;2022-12-07T09:57:45;3.70;47.80
16578;DHT22;8401;52.528;13.340;2022-12-07T10:00:19;3.80;48.60
16578;DHT22;8401;52.528;13.340;2022-12-07T10:02:57;3.70;48.20
16578;DHT22;8401;52.528;13.340;2022-12-07T10:08:26;3.80;65.00
16578;DHT22;8401;52.528;13.340;2022-12-07T10:10:56;3.90;59.20
16578;DHT22;8401;52.528;13.340;2022-12-07T10:13:40;3.90;60.80
16578;DHT22;8401;52.528;13.340;2022-12-07T10:16:20;3.90;57.60
16578;DHT22;8401;52.528;13.340;2022-12-07T10:18:53;3.80;62.60
16578;DHT22;8401;52.528;13.340;2022-12-07T10:21:24;3.80;68.00
16578;DHT22;8401;52.528;13.340;2022-12-07T10:24:14;3.80;69.20
16578;DHT22;8401;52.528;13.340;2022-12-07T10:26:53;3.80;68.40
16578;DHT22;8401;52.528;13.340;2022-12-07T10:29:34;3.70;68.10
16578;DHT22;8401;52.528;13.340;2022-12-07T10:34:37;3.80;86.50
16578;DHT22;8401;52.528;13.340;2022-12-07T10:37:18;3.70;90.20
16578;DHT22;8401;52.528;13.340;2022-12-07T10:39:53;3.80;83.00
16578;DHT22;8401;52.528;13.340;2022-12-07T10:42:27;3.80;81.40
16578;DHT22;8401;52.528;13.340;2022-12-07T10:59:25;3.70;97.00
16578;DHT22;8401;52.528;13.340;2022-12-07T11:11:37;4.00;97.90
16578;DHT22;8401;52.528;13.340;2022-12-07T11:17:20;3.90;99.90
16578;DHT22;8401;52.528;13.340;2022-12-07T11:22:26;4.00;99.90
16578;DHT22;8401;52.528;13.340;2022-12-07T11:24:57;4.10;97.60
16578;DHT22;8401;52.528;13.340;2022-12-07T11:27:48;4.20;99.30
16578;DHT22;8401;52.528;13.340;2022-12-07T11:30:19;4.20;92.10
16578;DHT22;8401;52.528;13.340;2022-12-07T11:37:51;4.20;93.10
16578;DHT22;8401;52.528;13.340;2022-12-07T11:40:29;4.20;95.80
16578;DHT22;8401;52.528;13.340;2022-12-07T11:42:58;4.30;94.10
16578;DHT22;8401;52.528;13.340;2022-12-07T11:45:35;4.30;91.70
16578;DHT22;8401;52.528;13.340;2022-12-07T11:48:20;4.30;85.00
16578;DHT22;8401;52.528;13.340;2022-12-07T11:50:57;4.30;90.40
16578;DHT22;8401;52.528;13.340;2022-12-07T11:53:25;4.30;96.30
16578;DHT22;8401;52.528;13.340;2022-12-07T11:56:12;4.30;97.20
16578;DHT22;8401;52.528;13.340;2022-12-07T12:03:50;4.30;94.20
16578;DHT22;8401;52.528;13.340;2022-12-07T12:06:17;4.40;94.30
16578;DHT22;8401;52.528;13.340;2022-12-07T12:14:22;4.40;96.40
16578;DHT22;8401;52.528;13.340;2022-12-07T12:22:20;4.70;96.30
16578;DHT22;8401;52.528;13.340;2022-12-07T12:24:51;4.60;89.20
16578;DHT22;8401;52.528;13.340;2022-12-07T12:27:38;4.60;93.10
16578;DHT22;8401;52.528;13.340;2022-12-07T12:30:07;4.60;94.30
16578;DHT22;8401;52.528;13.340;2022-12-07T12:35:02;4.70;94.40
16578;DHT22;8401;52.528;13.340;2022-12-07T12:42:48;4.60;92.50
16578;DHT22;8401;52.528;13.340;2022-12-07T12:45:19;4.60;91.40
16578;DHT22;8401;52.528;13.340;2022-12-07T12:50:33;4.50;92.50
16578;DHT22;8401;52.528;13.340;2022-12-07T12:55:47;4.50;96.60
16578;DHT22;8401;52.528;13.340;2022-12-07T13:00:46;4.50;96.60
16578;DHT22;8401;52.528;13.340;2022-12-07T13:03:27;4.60;95.80
16578;DHT22;8401;52.528;13.340;2022-12-07T13:08:45;4.60;93.10
16578;DHT22;8401;52.528;13.340;2022-12-07T13:11:29;4.70;93.60
16578;DHT22;8401;52.528;13.340;2022-12-07T13:16:59;4.70;92.00
16578;DHT22;8401;52.528;13.340;2022-12-07T13:27:41;4.80;91.90
16578;DHT22;8401;52.528;13.340;2022-12-07T13:30:27;4.80;91.50
16578;DHT22;8401;52.528;13.340;2022-12-07T13:32:56;4.70;90.70
16578;DHT22;8401;52.528;13.340;2022-12-07T13:35:32;4.80;93.90
16578;DHT22;8401;52.528;13.340;2022-12-07T13:37:59;4.70;94.60
16578;DHT22;8401;52.528;13.340;2022-12-07T13:40:26;4.70;97.10
16578;DHT22;8401;52.528;13.340;2022-12-07T13:43:02;4.70;95.10
16578;DHT22;8401;52.528;13.340;2022-12-07T13:45:31;4.70;98.40
16578;DHT22;8401;52.528;13.340;2022-12-07T13:48:31;4.70;98.00
16578;DHT22;8401;52.528;13.340;2022-12-07T13:51:01;4.70;99.10
16578;DHT22;8401;52.528;13.340;2022-12-07T13:53:28;4.70;99.90
16578;DHT22;8401;52.528;13.340;2022-12-07T13:55:56;4.70;98.80
16578;DHT22;8401;52.528;13.340;2022-12-07T13:58:33;4.60;98.00
16578;DHT22;8401;52.528;13.340;2022-12-07T14:00:59;4.60;98.20
16578;DHT22;8401;52.528;13.340;2022-12-07T14:03:33;4.60;97.00
16578;DHT22;8401;52.528;13.340;2022-12-07T14:08:31;4.70;94.40
16578;DHT22;8401;52.528;13.340;2022-12-07T14:10:57;4.60;95.90
16578;DHT22;8401;52.528;13.340;2022-12-07T14:13:39;4.60;94.30
16578;DHT22;8401;52.528;13.340;2022-12-07T14:16:28;4.60;94.70
16578;DHT22;8401;52.528;13.340;2022-12-07T14:18:56;4.60;90.20
16578;DHT22;8401;52.528;13.340;2022-12-07T14:21:25;4.50;95.20
16578;DHT22;8401;52.528;13.340;2022-12-07T14:24:19;4.60;99.10
16578;DHT22;8401;52.528;13.340;2022-12-07T14:26:49;4.60;99.90
16578;DHT22;8401;52.528;13.340;2022-12-07T14:31:51;4.60;98.00
16578;DHT22;8401;52.528;13.340;2022-12-07T14:34:20;4.50;96.90
16578;DHT22;8401;52.528;13.340;2022-12-07T14:36:46;4.50;99.20
16578;DHT22;8401;52.528;13.340;2022-12-07T14:39:11;4.50;99.90
16578;DHT22;8401;52.528;13.340;2022-12-07T14:41:37;4.40;99.90
16578;DHT22;8401;52.528;13.340;2022-12-07T14:44:22;4.40;99.90
16578;DHT22;8401;52.528;13.340;2022-12-07T14:46:49;4.40;99.90
16578;DHT22;8401;52.528;13.340;2022-12-07T14:49:15;4.40;99.90
16578;DHT22;8401;52.528;13.340;2022-12-07T14:51:41;4.30;99.90
16578;DHT22;8401;52.528;13.340;2022-12-07T14:54:14;4.30;99.90
16578;DHT22;8401;52.528;13.340;2022-12-07T14:56:40;4.30;99.90
16578;DHT22;8401;52.528;13.340;2022-12-07T14:59:07;4.20;99.90
16578;DHT22;8401;52.528;13.340;2022-12-07T15:01:32;4.20;99.90
16578;DHT22;8401;52.528;13.340;2022-12-07T15:03:58;4.20;99.90
16578;DHT22;8401;52.528;13.340;2022-12-07T15:06:24;4.20;99.90
16578;DHT22;8401;52.528;13.340;2022-12-07T15:08:50;4.10;99.90
16578;DHT22;8401;52.528;13.340;2022-12-07T15:11:17;4.10;99.90
16578;DHT22;8401;52.528;13.340;2022-12-07T15:13:43;4.10;99.90
16578;DHT22;8401;52.528;13.340;2022-12-07T15:16:28;4.10;99.90
16578;DHT22;8401;52.528;13.340;2022-12-07T15:18:54;4.00;99.90
16578;DHT22;8401;52.528;13.340;2022-12-07T15:21:20;4.00;99.90
16578;DHT22;8401;52.528;13.340;2022-12-07T15:23:46;3.90;99.90
16578;DHT22;8401;52.528;13.340;2022-12-07T15:26:12;3.90;99.90
16578;DHT22;8401;52.528;13.340;2022-12-07T15:28:39;3.90;99.90
16578;DHT22;8401;52.528;13.340;2022-12-07T15:31:11;3.90;99.90
16578;DHT22;8401;52.528;13.340;2022-12-07T15:33:37;3.90;99.90
16578;DHT22;8401;52.528;13.340;2022-12-07T15:36:03;3.90;99.90
16578;DHT22;8401;52.528;13.340;2022-12-07T15:38:28;3.90;99.90
16578;DHT22;8401;52.528;13.340;2022-12-07T15:40:55;4.00;99.90
16578;DHT22;8401;52.528;13.340;2022-12-07T15:43:21;3.90;99.90
16578;DHT22;8401;52.528;13.340;2022-12-07T15:46:05;4.00;99.90
16578;DHT22;8401;52.528;13.340;2022-12-07T15:48:31;4.00;99.90
16578;DHT22;8401;52.528;13.340;2022-12-07T15:51:07;4.00;99.90
16578;DHT22;8401;52.528;13.340;2022-12-07T15:53:34;4.00;99.90
16578;DHT22;8401;52.528;13.340;2022-12-07T15:56:00;4.00;99.90
16578;DHT22;8401;52.528;13.340;2022-12-07T15:58:26;4.00;99.90
16578;DHT22;8401;52.528;13.340;2022-12-07T16:00:51;4.00;99.90
16578;DHT22;8401;52.528;13.340;2022-12-07T16:03:17;4.00;99.90
16578;DHT22;8401;52.528;13.340;2022-12-07T16:05:49;4.00;99.90
16578;DHT22;8401;52.528;13.340;2022-12-07T16:08:14;4.00;99.90
16578;DHT22;8401;52.528;13.340;2022-12-07T16:10:40;3.90;99.90
16578;DHT22;8401;52.528;13.340;2022-12-07T16:13:09;3.80;99.90
16578;DHT22;8401;52.528;13.340;2022-12-07T16:15:38;3.80;99.90
16578;DHT22;8401;52.528;13.340;2022-12-07T16:18:04;3.80;99.90
16578;DHT22;8401;52.528;13.340;2022-12-07T16:20:30;3.70;99.90
16578;DHT22;8401;52.528;13.340;2022-12-07T16:22:55;3.70;99.90
16578;DHT22;8401;52.528;13.340;2022-12-07T16:25:21;3.60;99.90
16578;DHT22;8401;52.528;13.340;2022-12-07T16:27:47;3.60;99.90
16578;DHT22;8401;52.528;13.340;2022-12-07T16:30:14;3.60;99.90
16578;DHT22;8401;52.528;13.340;2022-12-07T16:32:41;3.50;99.90
16578;DHT22;8401;52.528;13.340;2022-12-07T16:35:08;3.50;99.90
16578;DHT22;8401;52.528;13.340;2022-12-07T16:37:33;3.60;99.90
16578;DHT22;8401;52.528;13.340;2022-12-07T16:39:59;3.50;99.90
16578;DHT22;8401;52.528;13.340;2022-12-07T16:42:25;3.50;99.90
16578;DHT22;8401;52.528;13.340;2022-12-07T16:44:51;3.50;99.90
16578;DHT22;8401;52.528;13.340;2022-12-07T16:47:17;3.50;99.90
16578;DHT22;8401;52.528;13.340;2022-12-07T16:49:43;3.50;99.90
16578;DHT22;8401;52.528;13.340;2022-12-07T16:52:09;3.50;99.90
16578;DHT22;8401;52.528;13.340;2022-12-07T16:54:36;3.50;99.90
16578;DHT22;8401;52.528;13.340;2022-12-07T16:57:02;3.40;99.90
16578;DHT22;8401;52.528;13.340;2022-12-07T16:59:27;3.40;99.90
16578;DHT22;8401;52.528;13.340;2022-12-07T17:01:53;3.30;99.90
16578;DHT22;8401;52.528;13.340;2022-12-07T17:04:18;3.40;99.90
16578;DHT22;8401;52.528;13.340;2022-12-07T17:06:44;3.30;99.90
16578;DHT22;8401;52.528;13.340;2022-12-07T17:09:10;3.30;99.90
16578;DHT22;8401;52.528;13.340;2022-12-07T17:11:37;3.40;99.90
16578;DHT22;8401;52.528;13.340;2022-12-07T17:14:03;3.30;99.90
16578;DHT22;8401;52.528;13.340;2022-12-07T17:16:47;3.30;99.90
16578;DHT22;8401;52.528;13.340;2022-12-07T17:19:15;3.30;99.90
16578;DHT22;8401;52.528;13.340;2022-12-07T17:21:42;3.30;99.90
16578;DHT22;8401;52.528;13.340;2022-12-07T17:24:10;3.30;99.90
16578;DHT22;8401;52.528;13.340;2022-12-07T17:26:37;3.20;99.90
16578;DHT22;8401;52.528;13.340;2022-12-07T17:29:04;3.20;99.90
16578;DHT22;8401;52.528;13.340;2022-12-07T17:31:30;3.20;99.90
16578;DHT22;8401;52.528;13.340;2022-12-07T17:33:57;3.20;99.90
16578;DHT22;8401;52.528;13.340;2022-12-07T17:36:28;3.20;99.90
16578;DHT22;8401;52.528;13.340;2022-12-07T17:38:54;3.10;99.90
16578;DHT22;8401;52.528;13.340;2022-12-07T17:41:29;3.10;99.90
16578;DHT22;8401;52.528;13.340;2022-12-07T17:44:17;3.10;99.90
16578;DHT22;8401;52.528;13.340;2022-12-07T17:46:45;3.10;99.90
16578;DHT22;8401;52.528;13.340;2022-12-07T17:49:11;3.00;99.90
16578;DHT22;8401;52.528;13.340;2022-12-07T17:51:37;3.00;99.90